Terminal Aerodrome Forecast
Issued by NWS

Home | Current Version | Previous Version | Text Only | Print | Product List | Glossary On
Versions: 1 2 3 4 5 6 7 8 9 10 11 12 13 14 15
000
FTUS46 KSEW 290500
TAFHQM
TAF
KHQM 290520Z 2906/3006 25005KT P6SM SKC
      TEMPO 2906/2909 5SM BR BKN005
     FM290900 25005KT 5SM BR BKN005
     FM291900 24011KT P6SM SKC=

USA.gov is the U.S. government's official web portal to all federal, state and local government web resources and services.